createdAt,value
2022-09-23T00:06:20.689Z,5.95
2022-09-23T00:08:52.968Z,5.47
2022-09-23T00:11:28.398Z,6.05
2022-09-23T00:14:00.550Z,5.55
2022-09-23T00:16:34.802Z,6.30
2022-09-23T07:01:05.304Z,10.27
2022-09-23T07:03:38.293Z,10.88
2022-09-23T07:06:10.060Z,10.50
2022-09-23T07:08:43.655Z,8.40
2022-09-23T07:13:51.180Z,12.00
2022-09-23T07:16:23.148Z,11.18
2022-09-23T07:18:55.174Z,10.63
2022-09-23T07:21:27.790Z,9.43
2022-09-23T07:23:59.530Z,9.23
2022-09-23T07:26:34.053Z,7.65
2022-09-23T07:36:43.919Z,6.57
2022-09-23T07:39:15.834Z,8.05
2022-09-23T07:41:49.240Z,6.15
2022-09-23T07:46:53.696Z,8.52
2022-09-23T07:54:32.750Z,11.02
2022-09-23T07:59:37.586Z,8.77
2022-09-23T08:22:25.383Z,8.20
2022-09-23T08:24:58.380Z,11.27
2022-09-23T10:22:19.150Z,4.95
2022-09-23T10:24:54.387Z,5.15
2022-09-23T10:27:31.311Z,7.30
2022-09-23T10:30:05.958Z,4.95
2022-09-23T10:35:18.485Z,4.00
2022-09-23T10:37:52.721Z,4.50
2022-09-23T10:40:48.435Z,5.45
2022-09-23T10:43:46.714Z,5.93
2022-09-23T10:46:40.750Z,4.53
2022-09-23T10:49:51.165Z,5.13
2022-09-23T10:52:45.429Z,4.05
2022-09-23T10:55:31.459Z,4.63
2022-09-23T10:58:20.537Z,5.47
2022-09-23T11:01:02.505Z,4.68
2022-09-23T11:04:01.352Z,4.35
2022-09-23T11:06:46.347Z,5.82
2022-09-23T11:09:29.061Z,5.43
2022-09-23T11:12:14.131Z,5.10
2022-09-23T11:15:00.072Z,6.68
2022-09-23T11:17:52.648Z,5.55
2022-09-23T11:20:52.578Z,7.80
2022-09-23T11:23:57.318Z,4.07
2022-09-23T11:26:41.301Z,6.40
2022-09-23T11:29:33.835Z,7.60
2022-09-23T11:32:26.468Z,6.30
2022-09-23T11:35:16.198Z,6.03
2022-09-23T11:37:52.877Z,5.00
2022-09-23T11:40:31.094Z,8.63
2022-09-23T11:43:07.404Z,3.67
2022-09-23T11:45:46.201Z,7.13
2022-09-23T11:48:22.839Z,4.60
2022-09-23T11:50:58.630Z,7.82
2022-09-23T11:53:35.633Z,3.00
2022-09-23T11:56:23.921Z,4.78
2022-09-23T11:59:06.119Z,4.53
2022-09-23T12:01:45.652Z,3.67
2022-09-23T12:04:29.175Z,6.68
2022-09-23T12:07:07.712Z,4.35
2022-09-23T12:09:58.198Z,3.88
2022-09-23T12:12:38.996Z,3.47
2022-09-23T12:15:24.455Z,3.70
2022-09-23T12:18:10.546Z,6.13
2022-09-23T12:20:50.458Z,4.07
2022-09-23T12:23:39.759Z,5.22
2022-09-23T12:26:17.151Z,3.88
2022-09-23T12:28:53.035Z,4.78
2022-09-23T12:31:33.877Z,5.40
2022-09-23T12:34:21.673Z,4.95
2022-09-23T12:36:53.479Z,4.07
2022-09-23T12:39:29.835Z,4.47
2022-09-23T12:42:04.640Z,3.55
2022-09-23T12:44:41.360Z,4.28
2022-09-23T12:47:37.876Z,5.90
2022-09-23T12:50:45.960Z,7.78
2022-09-23T12:53:53.310Z,3.17
2022-09-23T12:56:43.199Z,3.80
2022-09-23T12:59:25.303Z,4.88
2022-09-23T13:02:22.985Z,3.58
2022-09-23T13:05:17.997Z,5.82
2022-09-23T13:07:51.966Z,2.72
2022-09-23T13:10:32.740Z,4.68
2022-09-23T13:13:06.327Z,5.22
2022-09-23T13:15:38.549Z,3.65
2022-09-23T13:18:50.578Z,5.60
2022-09-23T13:22:00.370Z,3.50
2022-09-23T13:24:43.905Z,6.45
2022-09-23T13:27:20.971Z,5.75
2022-09-23T13:29:58.615Z,2.58
2022-09-23T13:32:33.179Z,3.67
2022-09-23T13:35:16.522Z,10.88
2022-09-23T13:37:49.687Z,7.35
2022-09-23T13:43:01.104Z,4.40
2022-09-23T13:45:37.925Z,2.90
2022-09-23T13:48:13.558Z,3.67
2022-09-23T13:50:49.032Z,5.03
2022-09-23T13:53:25.488Z,5.40
2022-09-23T13:56:02.563Z,5.53
2022-09-23T13:58:36.091Z,4.50
2022-09-23T14:01:08.659Z,4.20
2022-09-23T14:03:40.477Z,4.60
2022-09-23T14:06:15.942Z,3.42
2022-09-23T14:08:50.115Z,3.30
2022-09-23T14:11:23.815Z,4.85
2022-09-23T14:13:56.824Z,5.05
2022-09-23T14:16:29.452Z,4.80
2022-09-23T14:19:01.662Z,6.90
2022-09-23T14:21:36.984Z,3.70
2022-09-23T14:24:16.980Z,6.68
2022-09-23T14:26:52.207Z,4.78
2022-09-23T14:29:26.114Z,3.42
2022-09-23T14:32:03.007Z,3.30
2022-09-23T14:34:45.954Z,3.13
2022-09-23T14:37:45.472Z,3.72
2022-09-23T14:40:18.951Z,5.45
2022-09-23T14:42:58.469Z,4.43
2022-09-23T14:45:34.540Z,5.60
2022-09-23T14:48:10.886Z,4.35
2022-09-23T14:50:47.546Z,3.30
2022-09-23T14:53:40.799Z,4.68
2022-09-23T14:56:22.457Z,4.80
2022-09-23T14:58:56.315Z,5.90
2022-09-23T15:01:38.784Z,4.10
2022-09-23T15:04:27.864Z,4.27
2022-09-23T15:07:06.096Z,7.55
2022-09-23T15:09:41.238Z,5.38
2022-09-23T15:12:15.278Z,2.83
2022-09-23T15:14:51.281Z,4.75
2022-09-23T15:17:30.609Z,3.55
2022-09-23T15:20:05.295Z,4.10
2022-09-23T15:22:44.310Z,4.15
2022-09-23T15:25:21.380Z,3.47
2022-09-23T15:27:58.536Z,4.45
2022-09-23T15:30:32.067Z,4.53
2022-09-23T15:33:03.959Z,5.22
2022-09-23T15:35:36.434Z,3.72
2022-09-23T15:38:10.033Z,8.00
2022-09-23T15:40:43.716Z,3.50
2022-09-23T15:43:21.002Z,4.38
2022-09-23T15:45:57.037Z,4.60
2022-09-23T15:48:36.201Z,3.35
2022-09-23T15:51:09.790Z,5.55
2022-09-23T15:53:41.560Z,3.05
2022-09-23T15:56:14.656Z,3.65
2022-09-23T15:58:47.013Z,2.78
2022-09-23T16:01:24.050Z,3.53
2022-09-23T16:03:56.095Z,4.93
2022-09-23T16:06:28.090Z,4.78
2022-09-23T16:08:59.872Z,6.13
2022-09-23T16:11:32.983Z,7.20
2022-09-23T16:14:04.737Z,2.67
2022-09-23T16:16:36.554Z,3.03
2022-09-23T16:19:08.494Z,3.45
2022-09-23T16:21:40.948Z,2.70
2022-09-23T16:24:15.783Z,4.00
2022-09-23T16:26:48.890Z,4.78
2022-09-23T16:29:20.598Z,4.45
2022-09-23T16:31:52.484Z,3.58
2022-09-23T16:34:25.053Z,4.57
2022-09-23T16:36:56.830Z,5.53
2022-09-23T16:39:28.659Z,5.07
2022-09-23T16:42:02.156Z,3.95
2022-09-23T16:44:34.176Z,4.82
2022-09-23T16:47:06.140Z,2.35
2022-09-23T16:49:37.942Z,4.22
2022-09-23T16:52:11.516Z,3.65
2022-09-23T16:54:43.709Z,2.55
2022-09-23T16:57:16.879Z,4.18
2022-09-23T17:00:07.184Z,4.18
2022-09-23T17:02:57.790Z,7.25
2022-09-23T17:05:29.583Z,3.30
2022-09-23T17:08:01.799Z,2.22
2022-09-23T17:10:33.983Z,3.60
2022-09-23T17:13:08.159Z,5.20
2022-09-23T17:15:40.793Z,6.93
2022-09-23T17:18:15.512Z,11.70
2022-09-23T17:21:00.905Z,4.55
2022-09-23T17:23:35.146Z,5.13
2022-09-23T17:26:09.823Z,2.38
2022-09-23T17:28:42.988Z,4.78
2022-09-23T17:31:14.752Z,3.75
2022-09-23T17:33:46.644Z,2.92
2022-09-23T17:36:18.639Z,3.42
2022-09-23T17:38:53.459Z,4.35
2022-09-23T17:41:25.366Z,3.58
2022-09-23T17:43:58.597Z,3.47
2022-09-23T17:46:30.940Z,4.53
2022-09-23T17:49:04.050Z,4.68
2022-09-23T17:51:36.266Z,4.75
2022-09-23T17:54:08.155Z,3.47
2022-09-23T17:56:39.925Z,6.35
2022-09-23T17:59:13.263Z,3.33
2022-09-23T18:04:16.728Z,6.82
2022-09-23T18:06:48.534Z,8.68
2022-09-23T18:09:20.575Z,4.80
2022-09-23T18:11:52.524Z,4.30
2022-09-23T18:14:26.168Z,4.43
2022-09-23T18:16:57.964Z,5.30
2022-09-23T18:19:29.775Z,5.20
2022-09-23T18:22:01.633Z,10.18
2022-09-23T18:24:37.854Z,7.95
2022-09-23T18:27:09.699Z,6.38
2022-09-23T18:29:42.838Z,5.88
2022-09-23T18:32:14.698Z,7.53
2022-09-23T18:34:46.546Z,14.00
2022-09-23T18:37:18.282Z,12.43
2022-09-23T18:39:50.140Z,13.38
2022-09-23T18:42:23.573Z,12.73
2022-09-23T18:47:48.380Z,8.88
2022-09-23T18:50:38.592Z,8.25
2022-09-23T18:53:10.655Z,11.25
2022-09-23T18:55:42.517Z,10.10
2022-09-23T18:58:14.333Z,9.60
2022-09-23T19:00:50.138Z,10.88
2022-09-23T19:03:22.019Z,12.10
2022-09-23T19:05:53.797Z,7.20
2022-09-23T19:08:25.595Z,7.72
2022-09-23T19:10:58.756Z,8.70
2022-09-23T19:13:30.617Z,8.55
2022-09-23T19:16:05.696Z,9.00
2022-09-23T19:18:38.642Z,19.95
2022-09-23T19:21:12.673Z,14.82
2022-09-23T19:23:47.670Z,12.85
2022-09-23T19:26:21.686Z,16.25
2022-09-23T19:28:55.247Z,10.07
2022-09-23T19:31:30.149Z,6.65
2022-09-23T19:34:04.487Z,7.35
2022-09-23T19:36:39.330Z,5.63
2022-09-23T19:39:15.849Z,6.18
2022-09-23T19:41:48.441Z,15.07
2022-09-23T19:44:20.372Z,6.23
2022-09-23T19:46:56.753Z,6.47
2022-09-23T19:49:31.067Z,8.00
2022-09-23T19:52:03.053Z,7.82
2022-09-23T19:54:34.771Z,6.43
2022-09-23T19:57:06.506Z,10.40
2022-09-23T19:59:38.566Z,8.65
2022-09-23T20:02:12.655Z,9.13
2022-09-23T20:04:44.618Z,7.95
2022-09-23T20:07:16.340Z,8.05
2022-09-23T20:09:48.079Z,7.70
2022-09-23T20:12:20.307Z,10.98
2022-09-23T20:14:52.077Z,10.98
2022-09-23T20:17:25.189Z,8.63
2022-09-23T20:19:57.054Z,5.90
2022-09-23T20:22:33.123Z,6.18
2022-09-23T20:25:07.267Z,6.82
2022-09-23T20:27:39.472Z,10.50
2022-09-23T20:30:11.938Z,10.10
2022-09-23T20:32:45.194Z,16.10
2022-09-23T20:35:16.982Z,15.95
2022-09-23T20:37:48.681Z,15.20
2022-09-23T20:40:22.958Z,10.93
2022-09-23T20:42:54.751Z,13.85
2022-09-23T20:45:26.493Z,8.73
2022-09-23T20:48:00.183Z,7.82
2022-09-23T20:50:31.915Z,9.95
2022-09-23T20:55:35.269Z,9.63
2022-09-23T20:58:07.029Z,9.15
2022-09-23T22:43:04.881Z,7.25
